Time;durP1;ratioP1;P1;durP2;ratioP2;P2;SDS_P1;SDS_P2;PMS_P1;PMS_P2;Temp;Humidity;BMP_temperature;BMP_pressure;BME280_temperature;BME280_humidity;BME280_pressure;Samples;Min_cycle;Max_cycle;Signal;HPM_P1;HPM_P2
2023/03/13 04:02:14;;;;;;;1.10;0.60;;;13.20;47.10;;;;;;5116075;23;45609;-57
2023/03/13 04:04:40;;;;;;;0.90;0.70;;;13.20;47.10;;;;;;4918654;28;45102;-58
2023/03/13 04:07:05;;;;;;;1.07;0.77;;;13.20;47.10;;;;;;4901828;28;45976;-57
2023/03/13 04:09:31;;;;;;;1.02;0.60;;;13.20;47.10;;;;;;4903155;28;45736;-58
2023/03/13 04:11:56;;;;;;;0.90;0.70;;;13.20;47.20;;;;;;4907878;28;46063;-57
2023/03/13 04:14:22;;;;;;;1.23;0.90;;;13.20;47.20;;;;;;4922293;28;45384;-57
2023/03/13 04:16:47;;;;;;;0.80;0.70;;;13.20;47.10;;;;;;4914174;28;45812;-58
2023/03/13 04:19:13;;;;;;;1.27;0.80;;;13.20;47.10;;;;;;4926641;28;45693;-55
2023/03/13 04:21:39;;;;;;;0.90;0.70;;;13.20;47.10;;;;;;4913341;28;45224;-58
2023/03/13 04:24:04;;;;;;;0.70;0.70;;;13.20;47.10;;;;;;4922165;28;45888;-58
2023/03/13 04:26:30;;;;;;;0.93;0.70;;;13.20;47.10;;;;;;4897512;28;47395;-56
2023/03/13 04:28:55;;;;;;;1.00;0.70;;;13.20;47.10;;;;;;4922553;28;46275;-57
2023/03/13 04:31:22;;;;;;;1.00;0.70;;;13.20;47.10;;;;;;4905778;28;45500;-57
2023/03/13 04:33:47;;;;;;;0.88;0.75;;;13.20;47.10;;;;;;4917895;28;45286;-58
2023/03/13 04:36:13;;;;;;;1.37;0.57;;;13.20;47.20;;;;;;4916100;28;45654;-58
2023/03/13 04:38:38;;;;;;;0.70;0.63;;;13.20;47.10;;;;;;4919565;28;45374;-54
2023/03/13 04:41:04;;;;;;;1.02;0.70;;;13.20;47.10;;;;;;4911369;28;45763;-55
2023/03/13 04:43:29;;;;;;;0.97;0.60;;;13.20;47.20;;;;;;4918136;28;46474;-55
2023/03/13 04:45:55;;;;;;;0.93;0.80;;;13.20;47.10;;;;;;4896287;28;45448;-55
2023/03/13 04:48:21;;;;;;;1.20;0.80;;;13.20;47.10;;;;;;4916269;28;48113;-55
2023/03/13 04:50:47;;;;;;;0.95;0.60;;;13.20;47.10;;;;;;4915443;28;45308;-54
2023/03/13 04:53:13;;;;;;;0.88;0.60;;;13.20;47.10;;;;;;4919445;28;45568;-55
2023/03/13 04:55:38;;;;;;;0.60;0.50;;;13.20;47.10;;;;;;4909919;28;46287;-55
2023/03/13 04:58:04;;;;;;;0.88;0.80;;;13.20;47.10;;;;;;4917739;28;46255;-57
2023/03/13 05:00:29;;;;;;;1.00;0.60;;;13.20;47.10;;;;;;4906715;28;45619;-59
2023/03/13 05:02:55;;;;;;;0.93;0.70;;;13.20;47.10;;;;;;4901748;28;46744;-58
2023/03/13 05:05:20;;;;;;;1.00;0.70;;;13.20;47.10;;;;;;4915129;28;45529;-58
2023/03/13 05:07:46;;;;;;;0.90;0.75;;;13.20;47.10;;;;;;4900579;28;47528;-58
2023/03/13 05:10:12;;;;;;;0.77;0.60;;;13.20;47.10;;;;;;4918937;28;45635;-58
2023/03/13 05:12:37;;;;;;;0.70;0.60;;;13.20;47.10;;;;;;4916125;28;45714;-58
2023/03/13 05:15:03;;;;;;;1.03;0.70;;;13.20;47.10;;;;;;4926915;28;45578;-60
2023/03/13 05:17:28;;;;;;;1.05;0.70;;;13.20;47.10;;;;;;4877788;28;46044;-56
2023/03/13 05:19:54;;;;;;;1.17;0.77;;;13.20;47.10;;;;;;4919622;28;45361;-56
2023/03/13 05:22:20;;;;;;;0.73;0.70;;;13.20;47.10;;;;;;4917647;28;46524;-61
2023/03/13 05:24:45;;;;;;;1.02;0.75;;;13.20;47.10;;;;;;4927332;28;45176;-57
2023/03/13 05:27:11;;;;;;;0.90;0.70;;;13.20;47.10;;;;;;4917695;28;45558;-58
2023/03/13 05:29:36;;;;;;;1.00;0.67;;;13.20;47.10;;;;;;4924652;28;45240;-59
2023/03/13 05:32:02;;;;;;;1.33;0.73;;;13.20;47.10;;;;;;4917176;28;45620;-59
2023/03/13 05:34:27;;;;;;;0.95;0.70;;;13.20;47.10;;;;;;4920638;28;45864;-55
2023/03/13 05:36:53;;;;;;;0.80;0.70;;;13.20;47.10;;;;;;4914862;28;45377;-59
2023/03/13 05:39:18;;;;;;;0.53;0.53;;;13.20;47.10;;;;;;4916489;28;45057;-56
2023/03/13 05:41:44;;;;;;;1.48;0.82;;;13.20;47.10;;;;;;4917213;28;44979;-57
2023/03/13 05:44:10;;;;;;;0.95;0.75;;;13.20;47.10;;;;;;4923918;28;45500;-55
2023/03/13 05:46:35;;;;;;;0.90;0.70;;;13.20;47.10;;;;;;4915285;28;46543;-55
2023/03/13 05:49:01;;;;;;;0.70;0.70;;;13.20;47.10;;;;;;4922661;28;45100;-57
2023/03/13 05:51:26;;;;;;;1.20;0.70;;;13.20;47.10;;;;;;4920041;28;44896;-58
2023/03/13 05:53:52;;;;;;;0.90;0.80;;;13.20;47.10;;;;;;4926601;28;45297;-57
2023/03/13 05:56:17;;;;;;;0.97;0.77;;;13.20;47.10;;;;;;4917683;28;45403;-55
2023/03/13 05:58:43;;;;;;;0.70;0.57;;;13.20;47.10;;;;;;4923069;28;45502;-57
2023/03/13 06:01:09;;;;;;;0.70;0.70;;;13.20;47.10;;;;;;4918479;28;45320;-58
2023/03/13 06:03:35;;;;;;;0.65;0.60;;;13.20;47.10;;;;;;4923694;28;45410;-56
2023/03/13 06:06:00;;;;;;;0.90;0.70;;;13.20;47.70;;;;;;4915711;28;45120;-58
2023/03/13 06:08:26;;;;;;;0.93;0.80;;;13.20;47.10;;;;;;4919004;28;45481;-59
2023/03/13 06:10:52;;;;;;;0.63;0.60;;;13.20;47.10;;;;;;4903268;28;45784;-57
2023/03/13 06:13:17;;;;;;;0.90;0.77;;;13.20;47.10;;;;;;4906903;28;45298;-58
2023/03/13 06:15:49;;;;;;;0.93;0.70;;;13.20;47.20;;;;;;4912537;28;45504;-56
2023/03/13 06:18:14;;;;;;;0.55;0.55;;;13.20;47.10;;;;;;4921772;28;45150;-58
2023/03/13 06:20:40;;;;;;;0.83;0.70;;;13.20;47.20;;;;;;4918090;28;45307;-57
2023/03/13 06:23:05;;;;;;;1.13;0.80;;;13.20;47.20;;;;;;4912791;28;45698;-58
2023/03/13 06:25:31;;;;;;;0.63;0.63;;;13.20;47.10;;;;;;4913727;28;46298;-57
2023/03/13 06:27:56;;;;;;;0.90;0.77;;;13.20;47.10;;;;;;4914213;28;44759;-60
2023/03/13 06:30:22;;;;;;;0.77;0.70;;;13.20;47.20;;;;;;4908574;28;45018;-56
2023/03/13 06:32:49;;;;;;;0.80;0.70;;;13.20;47.20;;;;;;4920435;28;45913;-57
2023/03/13 06:35:14;;;;;;;0.77;0.77;;;13.20;47.20;;;;;;4914042;28;46583;-58
2023/03/13 06:37:40;;;;;;;1.00;0.70;;;13.20;47.20;;;;;;4921128;28;44886;-56
2023/03/13 06:40:06;;;;;;;0.82;0.65;;;13.20;47.20;;;;;;4914675;28;45373;-56
2023/03/13 06:42:32;;;;;;;1.10;0.70;;;13.20;47.20;;;;;;4902783;28;45748;-57
2023/03/13 06:44:57;;;;;;;0.65;0.65;;;13.20;47.20;;;;;;4923414;28;45474;-58
2023/03/13 06:47:23;;;;;;;0.80;0.60;;;13.20;47.20;;;;;;4914182;28;45216;-59
2023/03/13 06:49:49;;;;;;;0.80;0.70;;;13.20;47.20;;;;;;4922216;28;45018;-55
2023/03/13 06:52:14;;;;;;;0.75;0.60;;;13.20;47.20;;;;;;4917057;28;45589;-56
2023/03/13 06:54:40;;;;;;;0.80;0.70;;;13.20;47.20;;;;;;4919481;28;46740;-56
2023/03/13 06:57:06;;;;;;;0.98;0.80;;;13.20;47.20;;;;;;4911440;28;45656;-58
2023/03/13 06:59:31;;;;;;;2.53;1.20;;;13.20;47.20;;;;;;4925131;28;45319;-57
2023/03/13 07:01:57;;;;;;;4.50;1.87;;;13.20;50.60;;;;;;4913627;28;45251;-57
2023/03/13 07:04:22;;;;;;;6.40;1.63;;;13.20;53.60;;;;;;4922523;28;45128;-58
2023/03/13 07:06:48;;;;;;;5.18;1.73;;;13.30;53.50;;;;;;4915391;28;45703;-60
2023/03/13 07:09:13;;;;;;;4.93;1.77;;;13.30;53.70;;;;;;4924968;28;45226;-57
2023/03/13 07:11:39;;;;;;;4.80;1.50;;;13.50;53.50;;;;;;4918986;28;45519;-58
2023/03/13 07:14:04;;;;;;;5.70;1.50;;;13.60;53.20;;;;;;4927318;28;45554;-59
2023/03/13 07:16:30;;;;;;;4.47;1.45;;;13.80;53.00;;;;;;4911514;28;45248;-58
2023/03/13 07:18:55;;;;;;;3.25;1.30;;;14.00;52.70;;;;;;4924995;28;45217;-55
2023/03/13 07:21:21;;;;;;;3.33;1.40;;;14.20;52.40;;;;;;4919792;28;45283;-58
2023/03/13 07:23:46;;;;;;;3.27;1.40;;;14.40;52.10;;;;;;4926458;28;46100;-58
2023/03/13 07:26:13;;;;;;;3.93;1.40;;;14.60;51.80;;;;;;4921887;28;45811;-60
2023/03/13 07:28:39;;;;;;;4.15;1.38;;;14.80;51.50;;;;;;4922692;28;45515;-58
2023/03/13 07:31:10;;;;;;;3.23;1.20;;;15.00;51.20;;;;;;4915085;28;45756;-58
2023/03/13 07:33:36;;;;;;;2.70;1.20;;;15.20;50.90;;;;;;4931723;28;46213;-61
2023/03/13 07:36:02;;;;;;;1.88;1.10;;;15.40;50.60;;;;;;4919641;28;45292;-60
2023/03/13 07:38:27;;;;;;;3.35;1.40;;;15.60;50.20;;;;;;4924179;28;45519;-58
2023/03/13 07:40:56;;;;;;;2.20;1.13;;;15.80;50.00;;;;;;4921202;28;45691;-57
2023/03/13 07:43:22;;;;;;;1.70;0.80;;;16.00;49.80;;;;;;4930278;28;46239;-58
2023/03/13 07:45:55;;;;;;;3.42;1.10;;;16.00;49.90;;;;;;4923108;28;44964;-57
2023/03/13 07:48:21;;;;;;;;;;;16.10;49.80;;;;;;4924087;28;46257;-58
2023/03/13 07:50:46;;;;;;;1.23;0.70;;;16.20;49.90;;;;;;4928001;28;45291;-59
2023/03/13 07:53:12;;;;;;;;;;;16.30;49.50;;;;;;4929189;28;45703;-59
2023/03/13 07:55:37;;;;;;;;;;;16.50;49.50;;;;;;4921901;28;45156;-59
2023/03/13 07:58:03;;;;;;;;;;;16.70;49.30;;;;;;4927250;28;44748;-58
2023/03/13 08:00:28;;;;;;;;;;;16.80;49.10;;;;;;4921537;28;45375;-57
2023/03/13 08:02:54;;;;;;;;;;;16.90;48.90;;;;;;4928204;28;45596;-61
2023/03/13 08:05:19;;;;;;;;;;;17.10;48.80;;;;;;4910421;28;45577;-57
2023/03/13 08:07:45;;;;;;;;;;;17.20;48.60;;;;;;4926577;28;45479;-58
2023/03/13 08:10:10;;;;;;;;;;;17.40;48.50;;;;;;4906107;28;44730;-60
2023/03/13 08:12:36;;;;;;;;;;;17.50;48.30;;;;;;4923680;28;46121;-59
2023/03/13 08:15:01;;;;;;;;;;;17.70;48.20;;;;;;4931256;28;45538;-56
2023/03/13 08:17:30;;;;;;;3.10;0.63;;;17.80;48.00;;;;;;4902689;28;45348;-60
2023/03/13 08:19:55;;;;;;;;;;;18.00;47.60;;;;;;4927462;28;45535;-58
2023/03/13 08:22:21;;;;;;;1.00;0.50;;;18.10;47.70;;;;;;4920914;28;45924;-58
2023/03/13 08:24:47;;;;;;;1.13;0.70;;;18.30;47.40;;;;;;4927880;28;44626;-60
2023/03/13 08:27:12;;;;;;;1.63;0.63;;;18.30;47.20;;;;;;4909958;28;45275;-60
2023/03/13 08:29:38;;;;;;;0.95;0.70;;;18.50;47.20;;;;;;4927187;28;45219;-59
2023/03/13 08:32:03;;;;;;;;;;;18.60;47.10;;;;;;4922356;28;46209;-60
2023/03/13 08:34:29;;;;;;;0.95;0.40;;;18.80;47.20;;;;;;4926692;28;45532;-58
2023/03/13 08:36:55;;;;;;;1.35;0.40;;;18.90;46.90;;;;;;4923695;28;45167;-59
2023/03/13 08:39:21;;;;;;;1.48;0.80;;;19.10;46.80;;;;;;4925773;28;44944;-60
2023/03/13 08:41:47;;;;;;;1.42;0.73;;;19.10;46.70;;;;;;4918097;28;46069;-65
2023/03/13 08:44:14;;;;;;;2.35;0.90;;;19.20;46.60;;;;;;4927548;28;45532;-60
2023/03/13 08:46:39;;;;;;;1.65;0.70;;;19.40;46.50;;;;;;4901773;28;45393;-57
2023/03/13 08:49:05;;;;;;;3.53;0.68;;;19.40;46.40;;;;;;4928448;28;45296;-56
2023/03/13 08:51:31;;;;;;;1.38;0.70;;;19.50;46.40;;;;;;4922335;28;47276;-58
2023/03/13 08:53:57;;;;;;;2.95;0.50;;;19.60;46.30;;;;;;4926956;28;45281;-59
2023/03/13 08:56:24;;;;;;;1.17;0.60;;;19.60;46.20;;;;;;4918365;28;45417;-61
2023/03/13 08:59:00;;;;;;;2.75;0.65;;;19.70;46.10;;;;;;4926610;28;46067;-61
2023/03/13 09:01:27;;;;;;;0.90;0.50;;;19.80;46.00;;;;;;4927985;28;45079;-58
2023/03/13 09:03:53;;;;;;;1.45;0.70;;;19.90;46.00;;;;;;4928369;28;45307;-60
2023/03/13 09:06:19;;;;;;;2.35;0.57;;;20.00;46.00;;;;;;4923924;28;45219;-60
2023/03/13 09:08:44;;;;;;;2.97;0.65;;;20.10;45.80;;;;;;4924702;28;45511;-59
2023/03/13 09:11:11;;;;;;;1.40;0.63;;;20.10;45.80;;;;;;4914020;28;46517;-59
2023/03/13 09:13:40;;;;;;;0.95;0.55;;;20.20;45.70;;;;;;4931741;28;45209;-60
2023/03/13 09:16:10;;;;;;;3.13;0.60;;;20.30;45.60;;;;;;4903016;28;45494;-61
2023/03/13 09:18:36;;;;;;;3.13;0.65;;;20.40;45.60;;;;;;4920756;28;45362;-60
2023/03/13 09:21:02;;;;;;;1.23;0.57;;;20.40;45.50;;;;;;4912225;28;46441;-61
2023/03/13 09:23:27;;;;;;;1.67;0.55;;;20.50;45.40;;;;;;4922985;28;45255;-60
2023/03/13 09:25:54;;;;;;;1.58;0.52;;;20.60;45.40;;;;;;4922792;28;45178;-59
2023/03/13 09:28:20;;;;;;;2.42;0.60;;;20.70;45.90;;;;;;4925751;28;45212;-60
2023/03/13 09:30:45;;;;;;;4.22;0.52;;;20.70;45.20;;;;;;4918665;28;45261;-59
2023/03/13 09:33:11;;;;;;;1.42;0.45;;;20.80;45.20;;;;;;4929985;28;45429;-58
2023/03/13 09:35:40;;;;;;;1.63;0.45;;;20.80;45.10;;;;;;4921569;28;45536;-62
2023/03/13 09:38:05;;;;;;;3.13;0.60;;;20.90;45.00;;;;;;4908571;28;45251;-60
2023/03/13 09:40:35;;;;;;;1.27;0.50;;;21.00;45.00;;;;;;4916473;28;46542;-59
2023/03/13 09:43:00;;;;;;;0.40;0.40;;;21.10;45.00;;;;;;4913688;28;45250;-61
2023/03/13 09:45:38;;;;;;;1.20;0.60;;;21.10;44.90;;;;;;4917894;28;44861;-59
2023/03/13 09:48:21;;;;;;;0.77;0.43;;;21.20;44.70;;;;;;4925432;28;45239;-59
2023/03/13 09:50:55;;;;;;;0.88;0.40;;;21.20;44.70;;;;;;4903396;28;46644;-59
2023/03/13 09:53:30;;;;;;;1.27;0.55;;;21.30;44.70;;;;;;4923432;28;44941;-59
2023/03/13 09:55:55;;;;;;;1.13;0.57;;;21.40;44.60;;;;;;4907477;28;45260;-60
2023/03/13 09:58:23;;;;;;;0.73;0.50;;;21.50;44.60;;;;;;4911903;28;45514;-61
2023/03/13 10:00:54;;;;;;;1.48;0.50;;;21.50;44.50;;;;;;4899395;28;45624;-58
2023/03/13 10:03:22;;;;;;;1.38;0.60;;;21.60;44.40;;;;;;4925311;28;45316;-60
2023/03/13 10:05:50;;;;;;;1.40;0.43;;;21.60;44.30;;;;;;4894293;28;45266;-59
2023/03/13 10:08:16;;;;;;;5.85;0.65;;;21.70;44.30;;;;;;4925283;28;44703;-59
2023/03/13 10:11:07;;;;;;;0.98;0.55;;;21.70;44.20;;;;;;4918078;28;45803;-58
2023/03/13 10:13:50;;;;;;;0.68;0.40;;;21.80;44.10;;;;;;4908729;28;45339;-60
2023/03/13 10:16:37;;;;;;;1.50;0.70;;;21.80;44.10;;;;;;4919736;28;45489;-61
2023/03/13 10:19:18;;;;;;;0.93;0.55;;;21.90;43.80;;;;;;4920288;28;45630;-61
2023/03/13 10:21:48;;;;;;;1.13;0.40;;;21.90;43.90;;;;;;4915235;28;45896;-59
2023/03/13 10:24:18;;;;;;;0.75;0.50;;;22.00;43.90;;;;;;4923964;28;45248;-59
2023/03/13 10:26:43;;;;;;;1.45;0.63;;;22.10;43.90;;;;;;4921974;28;45475;-58
2023/03/13 10:29:23;;;;;;;1.92;0.60;;;22.10;43.90;;;;;;4892696;28;45591;-59
2023/03/13 10:32:09;;;;;;;0.75;0.40;;;22.20;43.70;;;;;;4911531;28;46793;-59
2023/03/13 10:34:54;;;;;;;1.77;0.68;;;22.20;43.60;;;;;;4924545;28;45110;-59
2023/03/13 10:37:22;;;;;;;0.85;0.30;;;22.30;43.60;;;;;;4922115;28;45668;-61
2023/03/13 10:39:48;;;;;;;1.90;0.60;;;22.30;43.70;;;;;;4925035;28;44678;-60
2023/03/13 10:42:28;;;;;;;0.85;0.43;;;22.40;43.70;;;;;;4919854;28;46128;-59
2023/03/13 10:45:00;;;;;;;1.63;0.63;;;22.40;43.50;;;;;;4896315;28;45230;-58
2023/03/13 10:47:26;;;;;;;1.65;0.60;;;22.50;43.50;;;;;;4911195;28;45394;-59
2023/03/13 10:49:55;;;;;;;1.05;0.40;;;22.60;43.60;;;;;;4927761;28;44975;-60
2023/03/13 10:52:40;;;;;;;1.42;0.77;;;22.60;43.50;;;;;;4917837;28;45466;-59
2023/03/13 10:55:08;;;;;;;1.17;0.40;;;22.70;43.40;;;;;;4909229;28;45447;-59
2023/03/13 10:57:34;;;;;;;1.15;0.60;;;22.70;43.40;;;;;;4887183;28;44679;-60
2023/03/13 11:00:03;;;;;;;1.63;0.60;;;22.80;43.40;;;;;;4925626;28;45256;-59
2023/03/13 11:02:34;;;;;;;0.50;0.45;;;22.80;43.40;;;;;;4902765;28;45346;-61
2023/03/13 11:05:00;;;;;;;4.53;0.50;;;22.80;43.30;;;;;;4922830;28;45480;-58
2023/03/13 11:07:33;;;;;;;0.98;0.30;;;22.90;43.30;;;;;;4918917;28;45279;-60
2023/03/13 11:10:21;;;;;;;0.57;0.30;;;22.90;43.20;;;;;;4925531;28;45637;-59
2023/03/13 11:12:48;;;;;;;0.93;0.45;;;22.90;43.00;;;;;;4916228;28;45916;-59
2023/03/13 11:15:24;;;;;;;1.05;0.50;;;23.00;43.30;;;;;;4873225;28;45217;-58
2023/03/13 11:18:14;;;;;;;0.65;0.30;;;23.00;43.00;;;;;;4930712;28;45567;-58
2023/03/13 11:20:40;;;;;;;0.77;0.30;;;23.00;42.90;;;;;;4913186;28;45290;-57
2023/03/13 11:23:20;;;;;;;1.20;0.47;;;23.00;43.10;;;;;;4929924;28;45307;-59
2023/03/13 11:26:10;;;;;;;2.67;0.43;;;23.10;42.90;;;;;;4924770;28;45382;-60
2023/03/13 11:28:44;;;;;;;1.10;0.57;;;23.10;42.90;;;;;;4914188;28;45513;-58
2023/03/13 11:31:32;;;;;;;1.33;0.52;;;23.10;42.90;;;;;;4921914;28;45402;-56
2023/03/13 11:34:05;;;;;;;1.95;0.55;;;23.20;42.90;;;;;;4929718;28;45357;-58
2023/03/13 11:36:33;;;;;;;0.85;0.40;;;23.20;42.80;;;;;;4921656;28;44761;-59
2023/03/13 11:39:27;;;;;;;0.88;0.40;;;23.20;42.90;;;;;;4931779;28;45294;-59
2023/03/13 11:42:22;;;;;;;1.25;0.45;;;23.30;42.70;;;;;;4908441;28;45368;-60
2023/03/13 11:45:12;;;;;;;1.15;0.40;;;23.30;42.70;;;;;;4921315;28;45511;-59
2023/03/13 11:47:37;;;;;;;1.77;0.45;;;23.30;42.60;;;;;;4923798;28;45316;-59
2023/03/13 11:50:27;;;;;;;0.43;0.40;;;23.40;42.80;;;;;;4929913;28;45266;-61
2023/03/13 11:53:34;;;;;;;1.08;0.40;;;23.40;42.50;;;;;;4927409;28;45381;-59
2023/03/13 11:56:02;;;;;;;2.40;0.40;;;23.40;42.50;;;;;;4919558;28;45521;-64
2023/03/13 11:59:10;;;;;;;0.50;0.43;;;23.40;42.70;;;;;;4927720;28;45232;-65
2023/03/13 12:01:40;;;;;;;0.63;0.35;;;23.40;42.60;;;;;;4899842;28;44863;-64
2023/03/13 12:04:13;;;;;;;1.13;0.52;;;23.40;42.90;;;;;;4920983;28;45156;-65
2023/03/13 12:06:45;;;;;;;1.25;0.52;;;23.40;43.00;;;;;;4916646;28;46129;-64
2023/03/13 12:09:15;;;;;;;0.33;0.30;;;23.30;43.60;;;;;;4931875;28;45243;-64
2023/03/13 12:12:02;;;;;;;0.55;0.30;;;23.30;43.10;;;;;;4924455;28;45228;-64
2023/03/13 12:14:30;;;;;;;0.40;0.40;;;23.30;43.10;;;;;;4923785;28;45285;-65
2023/03/13 12:17:02;;;;;;;1.95;0.30;;;23.30;43.10;;;;;;4904749;28;46476;-63
2023/03/13 12:19:32;;;;;;;0.68;0.30;;;23.30;43.10;;;;;;4928514;28;45211;-64
2023/03/13 12:21:58;;;;;;;0.63;0.32;;;23.30;43.20;;;;;;4893134;28;45927;-64
2023/03/13 12:24:35;;;;;;;2.75;0.45;;;23.30;43.30;;;;;;4935207;28;45270;-65
2023/03/13 12:27:31;;;;;;;0.65;0.40;;;23.30;43.20;;;;;;4921904;28;48392;-63
2023/03/13 12:30:35;;;;;;;2.30;0.50;;;23.30;43.20;;;;;;4932118;28;45346;-64
2023/03/13 12:33:09;;;;;;;2.10;0.50;;;23.30;43.30;;;;;;4915648;28;45422;-63
2023/03/13 12:35:35;;;;;;;0.57;0.30;;;23.20;43.40;;;;;;4924488;28;45154;-65
2023/03/13 12:38:23;;;;;;;1.88;0.50;;;23.30;43.50;;;;;;4900210;28;45390;-64
2023/03/13 12:41:00;;;;;;;0.57;0.30;;;23.30;43.40;;;;;;4907393;28;45560;-64
2023/03/13 12:43:31;;;;;;;0.77;0.40;;;23.30;43.50;;;;;;4930271;28;45318;-64
2023/03/13 12:45:57;;;;;;;0.77;0.45;;;23.30;43.60;;;;;;4891207;28;45339;-64
2023/03/13 12:48:38;;;;;;;0.45;0.28;;;23.20;43.60;;;;;;4927694;28;45653;-64
2023/03/13 12:51:24;;;;;;;0.63;0.40;;;23.30;43.60;;;;;;4931318;28;45247;-64
2023/03/13 12:54:13;;;;;;;1.17;0.30;;;23.30;43.70;;;;;;4930464;28;45202;-64
2023/03/13 12:56:58;;;;;;;0.50;0.30;;;23.30;43.60;;;;;;4918089;28;45633;-64
2023/03/13 12:59:27;;;;;;;2.28;0.25;;;23.30;43.70;;;;;;4926835;28;45476;-64
2023/03/13 13:01:53;;;;;;;3.70;0.43;;;23.30;43.70;;;;;;4903065;28;45387;-64
2023/03/13 13:04:27;;;;;;;0.30;0.20;;;23.30;43.80;;;;;;4929886;28;45526;-64
2023/03/13 13:06:56;;;;;;;0.43;0.30;;;23.30;43.70;;;;;;4925282;28;46430;-64
2023/03/13 13:09:24;;;;;;;1.08;0.30;;;23.30;43.80;;;;;;4931084;28;46254;-64
2023/03/13 13:11:51;;;;;;;1.08;0.40;;;23.30;43.80;;;;;;4926037;28;46510;-64
2023/03/13 13:14:16;;;;;;;0.52;0.30;;;23.30;43.90;;;;;;4914143;28;45246;-64
2023/03/13 13:16:42;;;;;;;1.13;0.30;;;23.40;43.90;;;;;;4919611;28;45269;-65
2023/03/13 13:19:40;;;;;;;2.47;0.30;;;23.30;43.90;;;;;;4908965;28;45653;-65
2023/03/13 13:22:38;;;;;;;0.40;0.40;;;23.30;43.90;;;;;;4929751;28;44862;-64
2023/03/13 13:25:09;;;;;;;0.43;0.20;;;23.40;44.00;;;;;;4894311;28;46157;-65
2023/03/13 13:27:35;;;;;;;0.80;0.45;;;23.40;43.90;;;;;;4943938;28;45011;-65
2023/03/13 13:30:22;;;;;;;0.55;0.30;;;23.40;44.00;;;;;;4932876;28;47520;-64
2023/03/13 13:32:48;;;;;;;3.08;0.30;;;23.40;44.00;;;;;;4907680;28;44741;-65
2023/03/13 13:35:28;;;;;;;0.38;0.30;;;23.40;44.00;;;;;;4924601;28;45203;-64
2023/03/13 13:38:19;;;;;;;1.13;0.35;;;23.40;44.00;;;;;;4924805;28;44725;-65
2023/03/13 13:40:57;;;;;;;0.77;0.20;;;23.50;44.10;;;;;;4920542;28;45386;-64
2023/03/13 13:43:22;;;;;;;0.60;0.30;;;23.40;44.10;;;;;;4929762;28;44758;-64
2023/03/13 13:46:05;;;;;;;0.43;0.28;;;23.40;44.10;;;;;;4923888;28;45388;-64
2023/03/13 13:48:41;;;;;;;0.60;0.30;;;23.50;44.10;;;;;;4910781;28;45242;-64
2023/03/13 13:51:10;;;;;;;1.60;0.22;;;23.50;44.10;;;;;;4925453;28;45936;-64
2023/03/13 13:53:53;;;;;;;0.20;0.20;;;23.50;44.10;;;;;;4933464;28;45069;-64
2023/03/13 13:56:32;;;;;;;1.35;0.30;;;23.50;44.20;;;;;;4922437;28;45231;-64
2023/03/13 13:59:01;;;;;;;0.65;0.30;;;23.50;44.20;;;;;;4929969;28;45315;-64
2023/03/13 14:01:27;;;;;;;0.80;0.35;;;23.50;44.20;;;;;;4922132;28;45578;-64
2023/03/13 14:03:56;;;;;;;0.38;0.20;;;23.50;44.20;;;;;;4894393;28;45498;-64
2023/03/13 14:06:23;;;;;;;0.40;0.20;;;23.50;44.20;;;;;;4924135;28;44698;-64
2023/03/13 14:08:51;;;;;;;0.75;0.30;;;23.60;44.20;;;;;;4916638;28;45474;-63
2023/03/13 14:11:20;;;;;;;0.43;0.38;;;23.60;44.20;;;;;;4925912;28;46445;-64
2023/03/13 14:14:01;;;;;;;0.75;0.30;;;23.60;44.20;;;;;;4929688;28;45124;-64
2023/03/13 14:16:27;;;;;;;0.28;0.20;;;23.60;44.20;;;;;;4912488;28;45311;-64
2023/03/13 14:18:52;;;;;;;0.30;0.20;;;23.60;44.30;;;;;;4894509;28;44890;-65
2023/03/13 14:21:22;;;;;;;0.55;0.30;;;23.60;44.20;;;;;;4923215;28;45743;-64
2023/03/13 14:23:47;;;;;;;1.02;0.35;;;23.70;44.30;;;;;;4928613;28;45238;-64
2023/03/13 14:26:39;;;;;;;0.30;0.30;;;23.70;44.30;;;;;;4925207;28;46260;-65
2023/03/13 14:29:05;;;;;;;1.73;0.30;;;23.70;44.30;;;;;;4926844;28;45613;-64
2023/03/13 14:31:34;;;;;;;0.52;0.30;;;23.70;44.30;;;;;;4905655;28;47211;-64
2023/03/13 14:34:04;;;;;;;0.77;0.30;;;23.70;44.30;;;;;;4927942;28;45213;-64
2023/03/13 14:36:29;;;;;;;0.70;0.40;;;23.80;44.30;;;;;;4924928;28;45061;-64
2023/03/13 14:38:58;;;;;;;1.45;0.50;;;23.70;44.30;;;;;;4929352;28;45218;-65
2023/03/13 14:41:28;;;;;;;0.68;0.32;;;23.80;44.40;;;;;;4908545;28;46151;-64
2023/03/13 14:43:54;;;;;;;0.30;0.30;;;23.80;44.40;;;;;;4932513;28;45266;-64
2023/03/13 14:46:31;;;;;;;1.02;0.40;;;23.80;44.40;;;;;;4921343;28;45478;-64
2023/03/13 14:48:59;;;;;;;0.68;0.38;;;23.80;44.40;;;;;;4902154;28;45154;-64
2023/03/13 14:51:25;;;;;;;0.93;0.50;;;23.90;44.30;;;;;;4917332;28;45389;-64
2023/03/13 14:53:59;;;;;;;0.43;0.30;;;23.90;44.50;;;;;;4914227;28;45578;-65
2023/03/13 14:56:35;;;;;;;0.47;0.20;;;23.80;44.50;;;;;;4925335;28;45823;-64
2023/03/13 14:59:18;;;;;;;0.40;0.20;;;23.90;44.50;;;;;;4899980;28;45840;-64
2023/03/13 15:01:44;;;;;;;0.40;0.20;;;23.90;44.50;;;;;;4920612;28;46095;-64
2023/03/13 15:04:09;;;;;;;0.22;0.15;;;23.90;44.50;;;;;;4933298;28;44960;-64
2023/03/13 15:06:35;;;;;;;0.50;0.20;;;23.90;44.50;;;;;;4926231;28;45364;-65
2023/03/13 15:09:18;;;;;;;0.43;0.28;;;23.90;44.50;;;;;;4903414;28;45530;-64
2023/03/13 15:11:53;;;;;;;;;;;24.00;44.50;;;;;;4910376;28;45328;-66
2023/03/13 15:14:31;;;;;;;0.45;0.22;;;24.00;44.60;;;;;;4928492;28;45168;-65
2023/03/13 15:16:56;;;;;;;0.80;0.20;;;24.00;44.60;;;;;;4909218;28;45805;-65
2023/03/13 15:19:22;;;;;;;0.47;0.20;;;23.90;44.50;;;;;;4938185;28;45671;-65
2023/03/13 15:21:50;;;;;;;0.73;0.20;;;23.80;44.50;;;;;;4925127;28;45460;-65
2023/03/13 15:24:15;;;;;;;0.25;0.25;;;23.80;44.70;;;;;;4899139;28;45253;-64
2023/03/13 15:26:41;;;;;;;0.35;0.20;;;23.70;44.80;;;;;;4906876;28;45184;-65
2023/03/13 15:29:08;;;;;;;0.45;0.30;;;23.60;45.00;;;;;;4919102;28;45332;-64
2023/03/13 15:31:34;;;;;;;0.10;0.10;;;23.50;45.10;;;;;;4922299;28;45354;-65
2023/03/13 15:34:00;;;;;;;0.52;0.20;;;23.50;45.20;;;;;;4930217;28;45060;-65
2023/03/13 15:36:26;;;;;;;0.65;0.28;;;23.40;45.30;;;;;;4906651;28;45285;-65
2023/03/13 15:38:51;;;;;;;0.95;0.30;;;23.30;45.40;;;;;;4910116;28;45469;-64
2023/03/13 15:41:18;;;;;;;0.25;0.20;;;23.20;45.40;;;;;;4927007;28;45359;-65
2023/03/13 15:43:44;;;;;;;0.32;0.25;;;23.20;45.50;;;;;;4915690;28;45338;-65
2023/03/13 15:46:13;;;;;;;0.30;0.20;;;23.10;45.70;;;;;;4910028;28;45289;-64
2023/03/13 15:48:40;;;;;;;0.75;0.20;;;23.10;45.80;;;;;;4925913;28;45193;-64
2023/03/13 15:51:08;;;;;;;0.90;0.30;;;23.00;45.80;;;;;;4922999;28;45421;-65
2023/03/13 15:53:34;;;;;;;0.40;0.20;;;22.90;46.00;;;;;;4913630;28;45264;-65
2023/03/13 15:56:00;;;;;;;0.30;0.20;;;22.90;46.10;;;;;;4918628;28;45581;-64
2023/03/13 15:58:27;;;;;;;2.70;0.32;;;22.80;46.20;;;;;;4929765;28;45201;-64
2023/03/13 16:00:53;;;;;;;0.60;0.38;;;22.80;46.20;;;;;;4921805;28;47033;-65
2023/03/13 16:03:20;;;;;;;3.03;0.40;;;22.70;46.30;;;;;;4913458;28;45639;-65
2023/03/13 16:05:46;;;;;;;1.08;0.25;;;22.60;46.30;;;;;;4923463;28;45290;-65
2023/03/13 16:08:17;;;;;;;1.40;0.30;;;22.60;46.50;;;;;;4934812;28;44755;-65
2023/03/13 16:10:43;;;;;;;0.65;0.28;;;22.50;46.60;;;;;;4912205;28;46892;-64
2023/03/13 16:13:09;;;;;;;0.60;0.40;;;22.50;46.70;;;;;;4895380;28;45082;-64
2023/03/13 16:15:35;;;;;;;0.20;0.20;;;22.40;46.70;;;;;;4922730;28;45384;-64
2023/03/13 16:18:00;;;;;;;1.08;0.20;;;22.40;46.80;;;;;;4927824;28;45322;-65
2023/03/13 16:20:27;;;;;;;0.70;0.30;;;22.30;46.90;;;;;;4908538;28;46136;-64
2023/03/13 16:22:53;;;;;;;3.08;0.40;;;22.20;46.90;;;;;;4929702;28;45256;-64
2023/03/13 16:25:19;;;;;;;0.70;0.30;;;22.20;47.10;;;;;;4925473;28;45512;-64
2023/03/13 16:27:45;;;;;;;0.60;0.30;;;22.10;47.10;;;;;;4928883;28;45198;-65
2023/03/13 16:30:18;;;;;;;0.38;0.28;;;22.00;47.20;;;;;;4925583;28;46518;-64
2023/03/13 16:32:44;;;;;;;0.28;0.28;;;22.00;47.30;;;;;;4916253;28;45132;-64
2023/03/13 16:35:10;;;;;;;1.00;0.30;;;21.90;47.40;;;;;;4911147;28;45684;-63
2023/03/13 16:37:35;;;;;;;0.57;0.35;;;21.90;47.40;;;;;;4927040;28;45698;-63
2023/03/13 16:40:01;;;;;;;0.65;0.30;;;21.80;47.50;;;;;;4929104;28;46106;-65
2023/03/13 16:42:26;;;;;;;0.90;0.30;;;21.70;47.50;;;;;;4928117;28;45514;-65
2023/03/13 16:44:52;;;;;;;0.30;0.20;;;21.70;47.60;;;;;;4928928;28;44738;-64
2023/03/13 16:47:20;;;;;;;0.55;0.40;;;21.60;47.60;;;;;;4921141;28;45576;-64
2023/03/13 16:49:46;;;;;;;1.05;0.30;;;21.60;47.80;;;;;;4928154;28;45323;-64
2023/03/13 16:52:15;;;;;;;0.75;0.40;;;21.50;47.80;;;;;;4921033;28;45091;-64
2023/03/13 16:54:41;;;;;;;0.55;0.30;;;21.50;48.00;;;;;;4919074;28;46260;-63
2023/03/13 16:57:18;;;;;;;0.65;0.30;;;21.40;47.90;;;;;;4921596;28;45485;-64
2023/03/13 16:59:43;;;;;;;0.40;0.40;;;21.40;48.20;;;;;;4910224;28;46468;-64
2023/03/13 17:02:16;;;;;;;0.38;0.22;;;21.30;48.10;;;;;;4914327;28;45629;-64
2023/03/13 17:04:42;;;;;;;0.30;0.30;;;21.30;48.30;;;;;;4923606;28;45588;-64